createdAt,value
2023-07-08T00:04:11.735Z,13.60
2023-07-08T00:08:28.978Z,13.50
2023-07-08T00:12:49.114Z,13.40
2023-07-08T00:17:14.313Z,13.40
2023-07-08T00:21:31.597Z,13.40
2023-07-08T00:25:49.357Z,13.40
2023-07-08T00:30:20.941Z,13.20
2023-07-08T00:34:38.117Z,13.20
2023-07-08T00:38:55.262Z,13.20
2023-07-08T00:43:12.502Z,13.20
2023-07-08T00:47:29.696Z,13.10
2023-07-08T00:51:46.819Z,13.00
2023-07-08T00:56:10.660Z,13.00
2023-07-08T01:00:28.920Z,12.80
2023-07-08T01:05:00.334Z,12.70
2023-07-08T01:09:18.233Z,12.70
2023-07-08T01:13:42.220Z,12.70
2023-07-08T01:17:59.770Z,12.80
2023-07-08T01:22:16.899Z,12.70
2023-07-08T01:26:36.781Z,12.70
2023-07-08T01:30:54.762Z,12.70
2023-07-08T01:35:13.245Z,12.50
2023-07-08T01:39:32.121Z,12.50
2023-07-08T01:43:49.248Z,12.30
2023-07-08T01:48:12.639Z,12.30
2023-07-08T01:52:29.805Z,12.20
2023-07-08T01:56:47.120Z,12.20
2023-07-08T02:01:04.993Z,12.10
2023-07-08T02:05:23.482Z,12.10
2023-07-08T02:09:40.897Z,12.10
2023-07-08T02:13:58.154Z,12.10
2023-07-08T02:18:15.467Z,12.00
2023-07-08T02:22:32.574Z,11.90
2023-07-08T02:26:50.011Z,11.90
2023-07-08T02:31:07.151Z,11.90
2023-07-08T02:35:27.465Z,11.80
2023-07-08T02:39:44.722Z,11.80
2023-07-08T02:44:01.948Z,11.80
2023-07-08T02:48:20.313Z,11.80
2023-07-08T02:52:37.582Z,11.70
2023-07-08T02:56:54.693Z,11.70
2023-07-08T03:01:11.863Z,11.80
2023-07-08T03:05:29.002Z,11.80
2023-07-08T03:09:46.126Z,11.80
2023-07-08T03:14:03.697Z,11.90
2023-07-08T03:18:22.510Z,11.70
2023-07-08T03:22:39.720Z,11.80
2023-07-08T03:26:56.881Z,11.90
2023-07-08T03:31:14.797Z,11.80
2023-07-08T03:35:32.229Z,11.90
2023-07-08T03:39:49.355Z,11.90
2023-07-08T03:44:06.487Z,11.80
2023-07-08T03:48:23.748Z,11.90
2023-07-08T03:52:40.937Z,11.90
2023-07-08T03:56:58.169Z,11.80
2023-07-08T04:01:17.849Z,11.90
2023-07-08T04:05:35.090Z,11.90
2023-07-08T04:09:52.242Z,12.00
2023-07-08T04:14:10.600Z,12.10
2023-07-08T04:18:28.032Z,12.10
2023-07-08T04:22:45.840Z,12.30
2023-07-08T04:27:03.099Z,12.30
2023-07-08T04:31:20.332Z,12.40
2023-07-08T04:35:39.323Z,12.50
2023-07-08T04:39:56.513Z,12.70
2023-07-08T04:44:14.239Z,12.90
2023-07-08T04:48:31.371Z,13.00
2023-07-08T04:52:48.869Z,13.20
2023-07-08T04:57:06.128Z,13.30
2023-07-08T05:01:23.309Z,13.50
2023-07-08T05:05:40.487Z,13.70
2023-07-08T05:09:59.604Z,13.80
2023-07-08T05:14:16.830Z,14.00
2023-07-08T05:18:34.001Z,14.20
2023-07-08T05:22:51.257Z,14.40
2023-07-08T05:27:08.370Z,14.60
2023-07-08T05:31:38.011Z,14.80
2023-07-08T05:36:03.139Z,15.00
2023-07-08T05:40:20.327Z,15.30
2023-07-08T05:44:37.479Z,15.50
2023-07-08T05:48:55.144Z,15.90
2023-07-08T05:53:12.954Z,16.10
2023-07-08T05:57:30.134Z,16.30
2023-07-08T06:01:47.302Z,16.40
2023-07-08T06:06:08.592Z,16.50
2023-07-08T06:10:26.283Z,16.70
2023-07-08T06:14:43.454Z,16.80
2023-07-08T06:19:00.625Z,16.90
2023-07-08T06:23:17.737Z,17.10
2023-07-08T06:27:34.857Z,17.30
2023-07-08T06:31:52.134Z,17.50
2023-07-08T06:36:09.463Z,17.60
2023-07-08T06:40:26.576Z,17.80
2023-07-08T06:44:53.432Z,17.90
2023-07-08T06:49:12.856Z,18.00
2023-07-08T06:53:30.064Z,18.20
2023-07-08T06:57:47.192Z,18.30
2023-07-08T07:02:04.542Z,18.40
2023-07-08T07:06:21.892Z,18.70
2023-07-08T07:10:39.261Z,18.80
2023-07-08T07:14:56.466Z,19.00
2023-07-08T07:19:13.671Z,19.30
2023-07-08T07:23:30.844Z,19.50
2023-07-08T07:27:48.017Z,20.00
2023-07-08T07:32:05.709Z,20.30
2023-07-08T07:36:23.068Z,20.50
2023-07-08T07:40:40.847Z,20.90
2023-07-08T07:44:58.151Z,21.40
2023-07-08T07:49:15.398Z,21.50
2023-07-08T07:53:32.862Z,22.30
2023-07-08T07:57:50.176Z,23.60
2023-07-08T08:02:08.447Z,25.30
2023-07-08T08:06:25.673Z,26.30
2023-07-08T08:10:45.556Z,27.40
2023-07-08T08:15:02.691Z,27.60
2023-07-08T08:19:19.987Z,27.70
2023-07-08T08:23:37.463Z,28.70
2023-07-08T08:27:54.688Z,29.50
2023-07-08T08:32:12.033Z,29.90
2023-07-08T08:36:29.346Z,28.70
2023-07-08T08:40:47.166Z,28.50
2023-07-08T08:45:05.135Z,29.00
2023-07-08T08:49:22.663Z,29.30
2023-07-08T08:53:40.102Z,29.50
2023-07-08T08:58:07.979Z,29.20
2023-07-08T09:02:43.448Z,29.10
2023-07-08T09:07:13.775Z,29.60
2023-07-08T09:11:45.844Z,30.40
2023-07-08T09:16:45.025Z,29.90
2023-07-08T09:21:15.296Z,29.20
2023-07-08T09:25:41.303Z,28.90
2023-07-08T09:29:58.762Z,29.70
2023-07-08T09:34:18.660Z,32.10
2023-07-08T09:38:35.800Z,33.50
2023-07-08T09:42:55.386Z,33.70
2023-07-08T09:47:24.100Z,33.40
2023-07-08T09:51:41.320Z,33.40
2023-07-08T09:56:00.494Z,33.50
2023-07-08T10:00:20.674Z,34.70
2023-07-08T10:04:38.375Z,34.60
2023-07-08T10:08:58.882Z,34.20
2023-07-08T10:13:41.407Z,34.90
2023-07-08T10:17:58.928Z,32.80
2023-07-08T10:22:42.046Z,33.50
2023-07-08T10:27:31.234Z,34.00
2023-07-08T10:32:12.443Z,35.00
2023-07-08T10:36:42.646Z,35.40
2023-07-08T10:41:20.450Z,32.70
2023-07-08T10:45:50.766Z,32.60
2023-07-08T10:50:22.826Z,32.20
2023-07-08T10:55:27.168Z,31.90
2023-07-08T11:00:04.999Z,33.60
2023-07-08T11:04:55.019Z,31.70
2023-07-08T11:09:18.544Z,32.00
2023-07-08T11:13:46.155Z,33.90
2023-07-08T11:18:17.409Z,34.50
2023-07-08T11:22:37.722Z,34.30
2023-07-08T11:27:28.711Z,34.90
2023-07-08T11:31:47.196Z,35.70
2023-07-08T11:36:06.130Z,33.70
2023-07-08T11:40:24.553Z,32.10
2023-07-08T11:44:51.028Z,32.00
2023-07-08T11:49:14.782Z,32.30
2023-07-08T11:53:31.905Z,33.40
2023-07-08T11:57:53.944Z,34.00
2023-07-08T12:02:13.738Z,34.80
2023-07-08T12:06:31.830Z,33.70
2023-07-08T12:10:53.902Z,33.20
2023-07-08T12:15:27.155Z,32.80
2023-07-08T12:19:47.949Z,33.40
2023-07-08T12:24:11.959Z,34.10
2023-07-08T12:28:29.172Z,35.00
2023-07-08T12:32:47.404Z,35.20
2023-07-08T12:37:04.991Z,36.50
2023-07-08T12:41:25.612Z,37.50
2023-07-08T12:45:42.751Z,37.00
2023-07-08T12:49:59.880Z,36.80
2023-07-08T12:54:17.882Z,35.80
2023-07-08T12:58:41.459Z,35.80
2023-07-08T13:03:04.703Z,35.90
2023-07-08T13:07:40.540Z,36.10
2023-07-08T13:11:58.769Z,36.20
2023-07-08T13:16:16.512Z,34.70
2023-07-08T13:20:33.969Z,36.20
2023-07-08T13:25:00.478Z,35.70
2023-07-08T13:29:19.820Z,34.60
2023-07-08T13:33:36.979Z,33.10
2023-07-08T13:37:55.756Z,32.50
2023-07-08T13:42:13.547Z,32.80
2023-07-08T13:46:36.083Z,32.40
2023-07-08T13:51:10.799Z,32.20
2023-07-08T13:55:29.559Z,32.30
2023-07-08T13:59:46.732Z,32.60
2023-07-08T14:04:04.773Z,32.20
2023-07-08T14:08:23.383Z,32.60
2023-07-08T14:12:40.570Z,33.50
2023-07-08T14:16:57.788Z,35.70
2023-07-08T14:21:14.953Z,36.80
2023-07-08T14:25:32.142Z,37.60
2023-07-08T14:29:52.236Z,38.00
2023-07-08T14:34:25.626Z,36.40
2023-07-08T14:38:42.742Z,35.70
2023-07-08T14:43:06.336Z,36.30
2023-07-08T14:47:23.521Z,37.40
2023-07-08T14:51:40.589Z,37.70
2023-07-08T14:55:59.143Z,38.10
2023-07-08T15:00:18.879Z,36.90
2023-07-08T15:04:36.529Z,36.30
2023-07-08T15:08:54.060Z,36.80
2023-07-08T15:13:11.718Z,37.10
2023-07-08T15:17:29.047Z,37.30
2023-07-08T15:21:46.365Z,36.70
2023-07-08T15:26:03.820Z,37.20
2023-07-08T15:30:26.197Z,37.80
2023-07-08T15:34:43.397Z,37.40
2023-07-08T15:39:00.507Z,37.10
2023-07-08T15:43:17.728Z,36.90
2023-07-08T15:47:34.802Z,36.80
2023-07-08T15:51:51.989Z,36.50
2023-07-08T15:56:14.234Z,35.10
2023-07-08T16:00:34.411Z,34.10
2023-07-08T16:04:51.566Z,33.60
2023-07-08T16:09:08.911Z,32.90
2023-07-08T16:13:29.500Z,32.50
2023-07-08T16:17:46.850Z,31.90
2023-07-08T16:22:04.750Z,31.70
2023-07-08T16:26:21.997Z,31.60
2023-07-08T16:30:39.123Z,31.50
2023-07-08T16:34:56.343Z,31.40
2023-07-08T16:39:13.500Z,31.30
2023-07-08T16:43:32.846Z,30.90
2023-07-08T16:47:51.966Z,30.80
2023-07-08T16:52:15.644Z,30.50
2023-07-08T16:56:32.829Z,30.20
2023-07-08T17:00:50.278Z,29.90
2023-07-08T17:05:21.655Z,29.80
2023-07-08T17:09:40.102Z,29.70
2023-07-08T17:13:57.822Z,29.60
2023-07-08T17:18:21.341Z,29.60
2023-07-08T17:22:39.055Z,29.40
2023-07-08T17:26:56.383Z,29.20
2023-07-08T17:35:50.665Z,28.70
2023-07-08T17:40:21.618Z,28.60
2023-07-08T17:44:41.439Z,28.40
2023-07-08T17:48:59.850Z,28.40
2023-07-08T17:53:16.913Z,28.40
2023-07-08T17:57:34.028Z,28.10
2023-07-08T18:01:51.445Z,28.00
2023-07-08T18:06:08.839Z,27.80
2023-07-08T18:10:28.545Z,27.80
2023-07-08T18:14:48.348Z,27.70
2023-07-08T18:19:06.090Z,27.50
2023-07-08T18:23:28.963Z,27.30
2023-07-08T18:27:46.418Z,27.10
2023-07-08T18:32:09.273Z,26.90
2023-07-08T18:36:26.415Z,26.60
2023-07-08T18:40:44.617Z,26.20
2023-07-08T18:45:01.796Z,25.90
2023-07-08T18:49:18.975Z,25.60
2023-07-08T18:53:36.110Z,25.30
2023-07-08T18:57:54.004Z,25.10
2023-07-08T19:02:29.685Z,24.80
2023-07-08T19:06:47.067Z,24.30
2023-07-08T19:11:06.077Z,24.00
2023-07-08T19:15:26.302Z,23.80
2023-07-08T19:19:43.469Z,23.60
2023-07-08T19:24:00.915Z,23.20
2023-07-08T19:28:18.100Z,23.00
2023-07-08T19:32:36.635Z,22.70
2023-07-08T19:36:55.939Z,22.40
2023-07-08T19:41:13.445Z,22.10
2023-07-08T19:45:30.975Z,21.90
2023-07-08T19:49:48.598Z,21.60
2023-07-08T19:54:06.008Z,21.40
2023-07-08T19:58:23.204Z,21.10
2023-07-08T20:02:40.493Z,20.90
2023-07-08T20:06:57.686Z,20.70
2023-07-08T20:11:16.156Z,20.50
2023-07-08T20:15:33.346Z,20.40
2023-07-08T20:19:50.506Z,20.10
2023-07-08T20:24:08.868Z,19.90
2023-07-08T20:28:44.601Z,19.70
2023-07-08T20:33:03.572Z,19.60
2023-07-08T20:37:21.497Z,19.50
2023-07-08T20:41:38.704Z,19.30
2023-07-08T20:45:56.859Z,19.20
2023-07-08T20:50:19.805Z,19.20
2023-07-08T20:54:37.076Z,19.00
2023-07-08T20:58:54.226Z,18.90
2023-07-08T21:03:12.224Z,18.70
2023-07-08T21:07:29.479Z,18.60
2023-07-08T21:11:46.683Z,18.40
2023-07-08T21:16:04.117Z,18.30
2023-07-08T21:20:23.982Z,18.30
2023-07-08T21:24:41.367Z,18.20
2023-07-08T21:29:01.493Z,18.10
2023-07-08T21:33:18.816Z,18.10
2023-07-08T21:37:35.988Z,17.90
2023-07-08T21:41:53.111Z,17.90
2023-07-08T21:46:11.304Z,17.70
2023-07-08T21:50:29.690Z,17.80
2023-07-08T21:54:46.853Z,17.70
2023-07-08T21:59:14.789Z,17.70
2023-07-08T22:03:31.944Z,17.60
2023-07-08T22:07:49.876Z,17.70
2023-07-08T22:12:13.422Z,17.90
2023-07-08T22:16:31.320Z,17.90
2023-07-08T22:21:15.697Z,17.60
2023-07-08T22:25:32.882Z,17.70
2023-07-08T22:29:50.065Z,17.40
2023-07-08T22:34:16.417Z,17.30
2023-07-08T22:38:33.574Z,17.20
2023-07-08T22:42:51.077Z,17.20
2023-07-08T22:47:13.818Z,17.10
2023-07-08T22:51:38.325Z,17.10
2023-07-08T22:55:55.546Z,17.00
2023-07-08T23:00:20.503Z,16.90
2023-07-08T23:04:37.640Z,17.00
2023-07-08T23:08:54.918Z,16.90
2023-07-08T23:13:20.549Z,16.70
2023-07-08T23:17:44.368Z,16.50
2023-07-08T23:22:01.683Z,16.50
2023-07-08T23:26:30.179Z,16.50
2023-07-08T23:30:47.324Z,16.50
2023-07-08T23:35:04.691Z,16.50
2023-07-08T23:39:25.731Z,16.40
2023-07-08T23:43:45.865Z,16.20
2023-07-08T23:48:03.656Z,16.10
2023-07-08T23:52:20.904Z,16.00
2023-07-08T23:56:38.071Z,16.00
